sensor_id;sensor_type;location;lat;lon;timestamp;P1;durP1;ratioP1;P2;durP2;ratioP2
22378;SDS011;11357;49.990;7.370;2023-07-13T00:00:17;4.37;;;2.40;;
22378;SDS011;11357;49.990;7.370;2023-07-13T00:02:43;4.60;;;2.50;;
22378;SDS011;11357;49.990;7.370;2023-07-13T00:05:09;7.00;;;2.63;;
22378;SDS011;11357;49.990;7.370;2023-07-13T00:07:35;2.93;;;2.10;;
22378;SDS011;11357;49.990;7.370;2023-07-13T00:10:02;5.97;;;2.70;;
22378;SDS011;11357;49.990;7.370;2023-07-13T00:12:29;4.47;;;2.37;;
22378;SDS011;11357;49.990;7.370;2023-07-13T00:15:01;5.83;;;2.60;;
22378;SDS011;11357;49.990;7.370;2023-07-13T00:17:30;3.80;;;2.70;;
22378;SDS011;11357;49.990;7.370;2023-07-13T00:19:56;2.43;;;2.23;;
22378;SDS011;11357;49.990;7.370;2023-07-13T00:22:22;5.30;;;2.77;;
22378;SDS011;11357;49.990;7.370;2023-07-13T00:24:50;2.87;;;2.57;;
22378;SDS011;11357;49.990;7.370;2023-07-13T00:27:17;4.90;;;2.33;;
22378;SDS011;11357;49.990;7.370;2023-07-13T00:29:43;3.33;;;2.50;;
22378;SDS011;11357;49.990;7.370;2023-07-13T00:32:10;6.00;;;2.53;;
22378;SDS011;11357;49.990;7.370;2023-07-13T00:34:37;3.23;;;2.40;;
22378;SDS011;11357;49.990;7.370;2023-07-13T00:37:03;5.10;;;2.40;;
22378;SDS011;11357;49.990;7.370;2023-07-13T00:39:34;3.87;;;2.60;;
22378;SDS011;11357;49.990;7.370;2023-07-13T00:42:00;5.07;;;2.63;;
22378;SDS011;11357;49.990;7.370;2023-07-13T00:44:26;4.23;;;2.60;;
22378;SDS011;11357;49.990;7.370;2023-07-13T00:46:52;4.90;;;2.63;;
22378;SDS011;11357;49.990;7.370;2023-07-13T00:49:20;4.33;;;2.53;;
22378;SDS011;11357;49.990;7.370;2023-07-13T00:51:52;5.73;;;2.40;;
22378;SDS011;11357;49.990;7.370;2023-07-13T00:54:32;4.67;;;3.00;;
22378;SDS011;11357;49.990;7.370;2023-07-13T00:57:04;4.60;;;2.57;;
22378;SDS011;11357;49.990;7.370;2023-07-13T00:59:32;8.37;;;3.00;;
22378;SDS011;11357;49.990;7.370;2023-07-13T01:02:01;6.03;;;3.03;;
22378;SDS011;11357;49.990;7.370;2023-07-13T01:04:28;7.30;;;2.67;;
22378;SDS011;11357;49.990;7.370;2023-07-13T01:06:54;3.90;;;2.40;;
22378;SDS011;11357;49.990;7.370;2023-07-13T01:09:20;5.50;;;2.70;;
22378;SDS011;11357;49.990;7.370;2023-07-13T01:11:47;5.50;;;2.80;;
22378;SDS011;11357;49.990;7.370;2023-07-13T01:14:13;2.87;;;2.50;;
22378;SDS011;11357;49.990;7.370;2023-07-13T01:16:40;4.37;;;2.53;;
22378;SDS011;11357;49.990;7.370;2023-07-13T01:19:50;3.10;;;2.80;;
22378;SDS011;11357;49.990;7.370;2023-07-13T01:22:23;4.77;;;2.60;;
22378;SDS011;11357;49.990;7.370;2023-07-13T01:24:52;4.57;;;2.47;;
22378;SDS011;11357;49.990;7.370;2023-07-13T01:27:23;5.83;;;2.83;;
22378;SDS011;11357;49.990;7.370;2023-07-13T01:29:51;6.60;;;2.73;;
22378;SDS011;11357;49.990;7.370;2023-07-13T01:32:24;3.40;;;2.30;;
22378;SDS011;11357;49.990;7.370;2023-07-13T01:34:50;5.67;;;2.70;;
22378;SDS011;11357;49.990;7.370;2023-07-13T01:37:19;5.70;;;2.63;;
22378;SDS011;11357;49.990;7.370;2023-07-13T01:39:45;5.60;;;2.90;;
22378;SDS011;11357;49.990;7.370;2023-07-13T01:42:12;4.50;;;2.77;;
22378;SDS011;11357;49.990;7.370;2023-07-13T01:44:38;6.47;;;2.63;;
22378;SDS011;11357;49.990;7.370;2023-07-13T01:47:04;5.17;;;2.63;;
22378;SDS011;11357;49.990;7.370;2023-07-13T01:49:30;4.73;;;2.60;;
22378;SDS011;11357;49.990;7.370;2023-07-13T01:51:55;3.57;;;2.37;;
22378;SDS011;11357;49.990;7.370;2023-07-13T01:54:21;6.77;;;2.90;;
22378;SDS011;11357;49.990;7.370;2023-07-13T01:56:47;4.07;;;2.40;;
22378;SDS011;11357;49.990;7.370;2023-07-13T01:59:12;3.47;;;2.30;;
22378;SDS011;11357;49.990;7.370;2023-07-13T02:01:38;6.03;;;2.30;;
22378;SDS011;11357;49.990;7.370;2023-07-13T02:04:04;4.87;;;2.13;;
22378;SDS011;11357;49.990;7.370;2023-07-13T02:06:30;3.60;;;2.00;;
22378;SDS011;11357;49.990;7.370;2023-07-13T02:08:56;6.40;;;2.60;;
22378;SDS011;11357;49.990;7.370;2023-07-13T02:11:22;5.73;;;2.60;;
22378;SDS011;11357;49.990;7.370;2023-07-13T02:13:49;3.53;;;2.17;;
22378;SDS011;11357;49.990;7.370;2023-07-13T02:16:16;5.93;;;2.57;;
22378;SDS011;11357;49.990;7.370;2023-07-13T02:18:41;4.47;;;2.30;;
22378;SDS011;11357;49.990;7.370;2023-07-13T02:21:07;4.43;;;2.20;;
22378;SDS011;11357;49.990;7.370;2023-07-13T02:23:33;4.27;;;2.17;;
22378;SDS011;11357;49.990;7.370;2023-07-13T02:26:01;3.23;;;2.03;;
22378;SDS011;11357;49.990;7.370;2023-07-13T02:28:29;1.90;;;1.80;;
22378;SDS011;11357;49.990;7.370;2023-07-13T02:30:54;3.87;;;2.07;;
22378;SDS011;11357;49.990;7.370;2023-07-13T02:33:20;1.90;;;1.63;;
22378;SDS011;11357;49.990;7.370;2023-07-13T02:35:46;5.43;;;2.00;;
22378;SDS011;11357;49.990;7.370;2023-07-13T02:38:12;4.80;;;2.17;;
22378;SDS011;11357;49.990;7.370;2023-07-13T02:40:37;4.63;;;2.30;;
22378;SDS011;11357;49.990;7.370;2023-07-13T02:43:03;3.20;;;1.80;;
22378;SDS011;11357;49.990;7.370;2023-07-13T02:45:29;3.37;;;2.10;;
22378;SDS011;11357;49.990;7.370;2023-07-13T02:47:55;4.90;;;2.00;;
22378;SDS011;11357;49.990;7.370;2023-07-13T02:50:21;5.10;;;1.70;;
22378;SDS011;11357;49.990;7.370;2023-07-13T02:52:46;7.83;;;2.30;;
22378;SDS011;11357;49.990;7.370;2023-07-13T02:55:12;5.33;;;2.43;;
22378;SDS011;11357;49.990;7.370;2023-07-13T02:57:38;7.03;;;2.20;;
22378;SDS011;11357;49.990;7.370;2023-07-13T03:00:04;4.40;;;1.90;;
22378;SDS011;11357;49.990;7.370;2023-07-13T03:02:31;5.83;;;2.00;;
22378;SDS011;11357;49.990;7.370;2023-07-13T03:04:57;4.47;;;2.00;;
22378;SDS011;11357;49.990;7.370;2023-07-13T03:07:23;3.83;;;2.33;;
22378;SDS011;11357;49.990;7.370;2023-07-13T03:09:53;6.67;;;2.40;;
22378;SDS011;11357;49.990;7.370;2023-07-13T03:12:22;7.10;;;1.83;;
22378;SDS011;11357;49.990;7.370;2023-07-13T03:14:49;5.77;;;2.17;;
22378;SDS011;11357;49.990;7.370;2023-07-13T03:17:14;6.77;;;2.50;;
22378;SDS011;11357;49.990;7.370;2023-07-13T03:19:40;4.10;;;1.97;;
22378;SDS011;11357;49.990;7.370;2023-07-13T03:22:06;5.63;;;2.30;;
22378;SDS011;11357;49.990;7.370;2023-07-13T03:24:33;4.97;;;2.27;;
22378;SDS011;11357;49.990;7.370;2023-07-13T03:27:00;3.97;;;2.33;;
22378;SDS011;11357;49.990;7.370;2023-07-13T03:29:27;5.83;;;2.43;;
22378;SDS011;11357;49.990;7.370;2023-07-13T03:31:53;4.83;;;2.47;;
22378;SDS011;11357;49.990;7.370;2023-07-13T03:34:18;3.60;;;2.30;;
22378;SDS011;11357;49.990;7.370;2023-07-13T03:36:44;5.23;;;2.43;;
22378;SDS011;11357;49.990;7.370;2023-07-13T03:39:10;5.17;;;2.50;;
22378;SDS011;11357;49.990;7.370;2023-07-13T03:41:36;7.43;;;2.37;;
22378;SDS011;11357;49.990;7.370;2023-07-13T03:44:01;3.67;;;2.13;;
22378;SDS011;11357;49.990;7.370;2023-07-13T03:46:28;2.57;;;2.10;;
22378;SDS011;11357;49.990;7.370;2023-07-13T03:48:54;5.03;;;2.70;;
22378;SDS011;11357;49.990;7.370;2023-07-13T03:51:19;4.83;;;2.60;;
22378;SDS011;11357;49.990;7.370;2023-07-13T03:53:46;5.37;;;2.77;;
22378;SDS011;11357;49.990;7.370;2023-07-13T03:56:12;5.57;;;2.50;;
22378;SDS011;11357;49.990;7.370;2023-07-13T03:58:40;8.23;;;3.10;;
22378;SDS011;11357;49.990;7.370;2023-07-13T04:01:09;5.63;;;2.53;;
22378;SDS011;11357;49.990;7.370;2023-07-13T04:03:35;4.13;;;2.90;;
22378;SDS011;11357;49.990;7.370;2023-07-13T04:06:02;4.03;;;2.50;;
22378;SDS011;11357;49.990;7.370;2023-07-13T04:08:31;3.80;;;2.90;;
22378;SDS011;11357;49.990;7.370;2023-07-13T04:10:59;2.67;;;2.43;;
22378;SDS011;11357;49.990;7.370;2023-07-13T04:13:25;4.13;;;2.40;;
22378;SDS011;11357;49.990;7.370;2023-07-13T04:15:51;4.27;;;2.73;;
22378;SDS011;11357;49.990;7.370;2023-07-13T04:18:17;3.57;;;2.50;;
22378;SDS011;11357;49.990;7.370;2023-07-13T04:20:45;3.20;;;2.27;;
22378;SDS011;11357;49.990;7.370;2023-07-13T04:23:11;3.73;;;1.93;;
22378;SDS011;11357;49.990;7.370;2023-07-13T04:25:37;3.07;;;2.23;;
22378;SDS011;11357;49.990;7.370;2023-07-13T04:28:03;8.27;;;2.70;;
22378;SDS011;11357;49.990;7.370;2023-07-13T04:30:29;3.13;;;2.30;;
22378;SDS011;11357;49.990;7.370;2023-07-13T04:32:56;3.33;;;2.53;;
22378;SDS011;11357;49.990;7.370;2023-07-13T04:35:21;3.77;;;2.37;;
22378;SDS011;11357;49.990;7.370;2023-07-13T04:37:48;3.10;;;2.30;;
22378;SDS011;11357;49.990;7.370;2023-07-13T04:40:15;5.70;;;2.10;;
22378;SDS011;11357;49.990;7.370;2023-07-13T04:42:45;4.93;;;2.47;;
22378;SDS011;11357;49.990;7.370;2023-07-13T04:45:12;4.63;;;2.70;;
22378;SDS011;11357;49.990;7.370;2023-07-13T04:47:39;5.10;;;2.70;;
22378;SDS011;11357;49.990;7.370;2023-07-13T04:50:05;3.40;;;2.70;;
22378;SDS011;11357;49.990;7.370;2023-07-13T04:52:32;5.43;;;2.67;;
22378;SDS011;11357;49.990;7.370;2023-07-13T04:54:58;4.03;;;1.97;;
22378;SDS011;11357;49.990;7.370;2023-07-13T04:57:25;4.00;;;2.20;;
22378;SDS011;11357;49.990;7.370;2023-07-13T04:59:52;4.97;;;2.23;;
22378;SDS011;11357;49.990;7.370;2023-07-13T05:02:17;5.10;;;2.43;;
22378;SDS011;11357;49.990;7.370;2023-07-13T05:04:46;5.60;;;2.47;;
22378;SDS011;11357;49.990;7.370;2023-07-13T05:07:12;6.80;;;2.63;;
22378;SDS011;11357;49.990;7.370;2023-07-13T05:09:39;4.57;;;2.20;;
22378;SDS011;11357;49.990;7.370;2023-07-13T05:12:05;5.37;;;2.77;;
22378;SDS011;11357;49.990;7.370;2023-07-13T05:14:32;4.37;;;2.10;;
22378;SDS011;11357;49.990;7.370;2023-07-13T05:16:57;6.20;;;2.40;;
22378;SDS011;11357;49.990;7.370;2023-07-13T05:19:23;6.90;;;2.57;;
22378;SDS011;11357;49.990;7.370;2023-07-13T05:21:49;3.83;;;2.07;;
22378;SDS011;11357;49.990;7.370;2023-07-13T05:24:15;6.47;;;2.50;;
22378;SDS011;11357;49.990;7.370;2023-07-13T05:26:40;6.90;;;2.57;;
22378;SDS011;11357;49.990;7.370;2023-07-13T05:29:06;4.30;;;2.83;;
22378;SDS011;11357;49.990;7.370;2023-07-13T05:31:32;3.57;;;2.37;;
22378;SDS011;11357;49.990;7.370;2023-07-13T05:33:57;3.80;;;2.10;;
22378;SDS011;11357;49.990;7.370;2023-07-13T05:36:23;3.20;;;1.97;;
22378;SDS011;11357;49.990;7.370;2023-07-13T05:38:48;3.07;;;1.87;;
22378;SDS011;11357;49.990;7.370;2023-07-13T05:41:14;3.07;;;1.60;;
22378;SDS011;11357;49.990;7.370;2023-07-13T05:43:40;3.20;;;1.83;;
22378;SDS011;11357;49.990;7.370;2023-07-13T05:46:05;4.90;;;1.67;;
22378;SDS011;11357;49.990;7.370;2023-07-13T05:48:31;2.63;;;1.50;;
22378;SDS011;11357;49.990;7.370;2023-07-13T05:50:56;2.50;;;1.50;;
22378;SDS011;11357;49.990;7.370;2023-07-13T05:53:22;3.07;;;1.30;;
22378;SDS011;11357;49.990;7.370;2023-07-13T05:55:48;5.40;;;1.40;;
22378;SDS011;11357;49.990;7.370;2023-07-13T05:58:16;5.10;;;1.30;;
22378;SDS011;11357;49.990;7.370;2023-07-13T06:00:42;7.43;;;1.60;;
22378;SDS011;11357;49.990;7.370;2023-07-13T06:03:08;7.60;;;1.50;;
22378;SDS011;11357;49.990;7.370;2023-07-13T06:05:34;5.93;;;1.57;;
22378;SDS011;11357;49.990;7.370;2023-07-13T06:08:01;3.25;;;1.30;;
22378;SDS011;11357;49.990;7.370;2023-07-13T06:10:27;2.60;;;1.10;;
22378;SDS011;11357;49.990;7.370;2023-07-13T06:12:53;2.97;;;1.25;;
22378;SDS011;11357;49.990;7.370;2023-07-13T06:15:18;5.63;;;1.30;;
22378;SDS011;11357;49.990;7.370;2023-07-13T06:17:44;6.00;;;1.45;;
22378;SDS011;11357;49.990;7.370;2023-07-13T06:20:10;6.97;;;1.30;;
22378;SDS011;11357;49.990;7.370;2023-07-13T06:22:36;4.80;;;1.20;;
22378;SDS011;11357;49.990;7.370;2023-07-13T06:25:01;8.40;;;1.40;;
22378;SDS011;11357;49.990;7.370;2023-07-13T06:27:28;3.30;;;1.23;;
22378;SDS011;11357;49.990;7.370;2023-07-13T06:29:53;3.72;;;1.27;;
22378;SDS011;11357;49.990;7.370;2023-07-13T06:32:19;2.92;;;1.10;;
22378;SDS011;11357;49.990;7.370;2023-07-13T06:34:45;3.90;;;1.33;;
22378;SDS011;11357;49.990;7.370;2023-07-13T06:37:11;6.20;;;1.10;;
22378;SDS011;11357;49.990;7.370;2023-07-13T06:39:37;2.88;;;1.17;;
22378;SDS011;11357;49.990;7.370;2023-07-13T06:42:02;5.88;;;1.30;;
22378;SDS011;11357;49.990;7.370;2023-07-13T06:44:29;6.43;;;1.50;;
22378;SDS011;11357;49.990;7.370;2023-07-13T06:46:55;6.25;;;1.17;;
22378;SDS011;11357;49.990;7.370;2023-07-13T06:49:20;3.17;;;1.02;;
22378;SDS011;11357;49.990;7.370;2023-07-13T06:51:46;2.38;;;1.20;;
22378;SDS011;11357;49.990;7.370;2023-07-13T06:54:13;5.82;;;1.30;;
22378;SDS011;11357;49.990;7.370;2023-07-13T06:56:39;3.67;;;1.20;;
22378;SDS011;11357;49.990;7.370;2023-07-13T06:59:04;3.28;;;0.95;;
22378;SDS011;11357;49.990;7.370;2023-07-13T07:01:30;3.90;;;1.10;;
22378;SDS011;11357;49.990;7.370;2023-07-13T07:03:56;4.47;;;1.23;;
22378;SDS011;11357;49.990;7.370;2023-07-13T07:06:21;4.50;;;1.20;;
22378;SDS011;11357;49.990;7.370;2023-07-13T07:08:49;4.68;;;1.58;;
22378;SDS011;11357;49.990;7.370;2023-07-13T07:11:19;4.03;;;1.08;;
22378;SDS011;11357;49.990;7.370;2023-07-13T07:13:50;2.78;;;1.02;;
22378;SDS011;11357;49.990;7.370;2023-07-13T07:16:16;3.20;;;0.95;;
22378;SDS011;11357;49.990;7.370;2023-07-13T07:18:43;3.05;;;0.90;;
22378;SDS011;11357;49.990;7.370;2023-07-13T07:21:09;7.07;;;1.50;;
22378;SDS011;11357;49.990;7.370;2023-07-13T07:23:34;4.10;;;1.20;;
22378;SDS011;11357;49.990;7.370;2023-07-13T07:26:00;4.32;;;1.50;;
22378;SDS011;11357;49.990;7.370;2023-07-13T07:28:26;2.50;;;1.05;;
22378;SDS011;11357;49.990;7.370;2023-07-13T07:30:53;4.82;;;1.40;;
22378;SDS011;11357;49.990;7.370;2023-07-13T07:33:20;3.97;;;1.25;;
22378;SDS011;11357;49.990;7.370;2023-07-13T07:35:46;5.55;;;1.20;;
22378;SDS011;11357;49.990;7.370;2023-07-13T07:38:11;5.10;;;1.08;;
22378;SDS011;11357;49.990;7.370;2023-07-13T07:40:38;7.05;;;1.20;;
22378;SDS011;11357;49.990;7.370;2023-07-13T07:43:05;2.50;;;0.93;;
22378;SDS011;11357;49.990;7.370;2023-07-13T07:45:32;4.82;;;1.20;;
22378;SDS011;11357;49.990;7.370;2023-07-13T07:47:57;2.50;;;1.10;;
22378;SDS011;11357;49.990;7.370;2023-07-13T07:50:27;3.25;;;1.20;;
22378;SDS011;11357;49.990;7.370;2023-07-13T07:52:53;2.58;;;1.00;;
22378;SDS011;11357;49.990;7.370;2023-07-13T07:55:21;4.75;;;1.00;;
22378;SDS011;11357;49.990;7.370;2023-07-13T07:57:47;3.00;;;1.00;;
22378;SDS011;11357;49.990;7.370;2023-07-13T08:00:13;1.40;;;0.85;;
22378;SDS011;11357;49.990;7.370;2023-07-13T08:02:40;2.55;;;1.20;;
22378;SDS011;11357;49.990;7.370;2023-07-13T08:05:06;4.20;;;1.38;;
22378;SDS011;11357;49.990;7.370;2023-07-13T08:07:33;1.40;;;0.82;;
22378;SDS011;11357;49.990;7.370;2023-07-13T08:09:59;4.45;;;1.10;;
22378;SDS011;11357;49.990;7.370;2023-07-13T08:12:25;2.55;;;0.98;;
22378;SDS011;11357;49.990;7.370;2023-07-13T08:14:51;3.65;;;1.20;;
22378;SDS011;11357;49.990;7.370;2023-07-13T08:17:22;2.33;;;1.13;;
22378;SDS011;11357;49.990;7.370;2023-07-13T08:19:49;4.30;;;1.30;;
22378;SDS011;11357;49.990;7.370;2023-07-13T08:22:15;3.22;;;1.33;;
22378;SDS011;11357;49.990;7.370;2023-07-13T08:24:40;4.00;;;1.00;;
22378;SDS011;11357;49.990;7.370;2023-07-13T08:27:10;4.25;;;1.02;;
22378;SDS011;11357;49.990;7.370;2023-07-13T08:29:36;5.30;;;1.00;;
22378;SDS011;11357;49.990;7.370;2023-07-13T08:32:04;5.80;;;0.98;;
22378;SDS011;11357;49.990;7.370;2023-07-13T08:34:30;4.90;;;0.88;;
22378;SDS011;11357;49.990;7.370;2023-07-13T08:36:56;2.72;;;0.90;;
22378;SDS011;11357;49.990;7.370;2023-07-13T08:39:22;3.70;;;1.17;;
22378;SDS011;11357;49.990;7.370;2023-07-13T08:41:48;9.55;;;1.02;;
22378;SDS011;11357;49.990;7.370;2023-07-13T08:44:40;4.72;;;1.23;;
22378;SDS011;11357;49.990;7.370;2023-07-13T08:47:11;3.65;;;1.00;;
22378;SDS011;11357;49.990;7.370;2023-07-13T08:49:40;4.68;;;0.95;;
22378;SDS011;11357;49.990;7.370;2023-07-13T08:54:53;4.00;;;1.02;;
22378;SDS011;11357;49.990;7.370;2023-07-13T08:57:22;2.40;;;1.13;;
22378;SDS011;11357;49.990;7.370;2023-07-13T08:59:55;6.43;;;1.17;;
22378;SDS011;11357;49.990;7.370;2023-07-13T09:02:26;6.93;;;1.10;;
22378;SDS011;11357;49.990;7.370;2023-07-13T09:13:03;5.40;;;0.95;;
22378;SDS011;11357;49.990;7.370;2023-07-13T09:15:41;4.80;;;0.90;;
22378;SDS011;11357;49.990;7.370;2023-07-13T09:21:07;5.45;;;1.13;;
22378;SDS011;11357;49.990;7.370;2023-07-13T09:23:40;3.95;;;1.00;;
22378;SDS011;11357;49.990;7.370;2023-07-13T09:28:46;2.92;;;1.02;;
22378;SDS011;11357;49.990;7.370;2023-07-13T09:31:28;3.83;;;0.85;;
22378;SDS011;11357;49.990;7.370;2023-07-13T09:34:08;2.78;;;0.93;;
22378;SDS011;11357;49.990;7.370;2023-07-13T09:36:35;1.95;;;0.80;;
22378;SDS011;11357;49.990;7.370;2023-07-13T09:44:29;7.20;;;0.90;;
22378;SDS011;11357;49.990;7.370;2023-07-13T09:46:56;4.18;;;0.90;;
22378;SDS011;11357;49.990;7.370;2023-07-13T09:49:26;3.80;;;0.93;;
22378;SDS011;11357;49.990;7.370;2023-07-13T09:52:01;1.90;;;0.85;;
22378;SDS011;11357;49.990;7.370;2023-07-13T09:54:35;3.80;;;0.82;;
22378;SDS011;11357;49.990;7.370;2023-07-13T09:57:03;2.80;;;1.00;;
22378;SDS011;11357;49.990;7.370;2023-07-13T09:59:39;4.68;;;0.90;;
22378;SDS011;11357;49.990;7.370;2023-07-13T10:02:41;4.90;;;1.10;;
22378;SDS011;11357;49.990;7.370;2023-07-13T10:07:28;4.65;;;1.00;;
22378;SDS011;11357;49.990;7.370;2023-07-13T10:09:55;2.38;;;0.70;;
22378;SDS011;11357;49.990;7.370;2023-07-13T10:12:22;3.10;;;1.08;;
22378;SDS011;11357;49.990;7.370;2023-07-13T10:14:50;2.28;;;0.90;;
22378;SDS011;11357;49.990;7.370;2023-07-13T10:17:20;2.92;;;0.82;;
22378;SDS011;11357;49.990;7.370;2023-07-13T10:19:59;4.20;;;0.98;;
22378;SDS011;11357;49.990;7.370;2023-07-13T10:25:17;3.70;;;1.10;;
22378;SDS011;11357;49.990;7.370;2023-07-13T10:27:52;2.70;;;0.82;;
22378;SDS011;11357;49.990;7.370;2023-07-13T10:31:31;2.72;;;0.80;;
22378;SDS011;11357;49.990;7.370;2023-07-13T11:05:49;2.75;;;0.95;;
22378;SDS011;11357;49.990;7.370;2023-07-13T11:08:32;3.63;;;0.90;;
22378;SDS011;11357;49.990;7.370;2023-07-13T11:11:03;1.38;;;0.60;;
22378;SDS011;11357;49.990;7.370;2023-07-13T11:19:08;2.35;;;0.80;;
22378;SDS011;11357;49.990;7.370;2023-07-13T11:22:01;2.90;;;0.82;;
22378;SDS011;11357;49.990;7.370;2023-07-13T11:24:47;3.28;;;0.80;;
22378;SDS011;11357;49.990;7.370;2023-07-13T11:36:15;3.88;;;0.80;;
22378;SDS011;11357;49.990;7.370;2023-07-13T11:38:58;5.07;;;0.80;;
22378;SDS011;11357;49.990;7.370;2023-07-13T11:41:29;1.42;;;0.73;;
22378;SDS011;11357;49.990;7.370;2023-07-13T11:44:07;1.67;;;0.77;;
22378;SDS011;11357;49.990;7.370;2023-07-13T11:46:49;2.67;;;0.95;;
22378;SDS011;11357;49.990;7.370;2023-07-13T11:49:23;3.10;;;0.88;;
22378;SDS011;11357;49.990;7.370;2023-07-13T11:51:52;2.72;;;0.93;;
22378;SDS011;11357;49.990;7.370;2023-07-13T11:54:29;2.38;;;1.00;;
22378;SDS011;11357;49.990;7.370;2023-07-13T11:57:02;0.95;;;0.65;;
22378;SDS011;11357;49.990;7.370;2023-07-13T11:59:37;6.32;;;1.08;;
22378;SDS011;11357;49.990;7.370;2023-07-13T12:02:08;2.10;;;0.70;;
22378;SDS011;11357;49.990;7.370;2023-07-13T12:04:49;4.60;;;1.13;;
22378;SDS011;11357;49.990;7.370;2023-07-13T12:07:17;3.90;;;0.80;;
22378;SDS011;11357;49.990;7.370;2023-07-13T12:09:44;3.03;;;1.30;;
22378;SDS011;11357;49.990;7.370;2023-07-13T12:12:11;3.00;;;1.00;;
22378;SDS011;11357;49.990;7.370;2023-07-13T12:14:40;1.98;;;1.05;;
22378;SDS011;11357;49.990;7.370;2023-07-13T12:19:45;2.70;;;0.75;;
22378;SDS011;11357;49.990;7.370;2023-07-13T12:22:13;3.97;;;0.68;;
22378;SDS011;11357;49.990;7.370;2023-07-13T12:24:41;4.18;;;1.33;;
22378;SDS011;11357;49.990;7.370;2023-07-13T12:27:24;1.88;;;0.80;;
22378;SDS011;11357;49.990;7.370;2023-07-13T12:29:52;2.60;;;0.77;;
22378;SDS011;11357;49.990;7.370;2023-07-13T12:32:24;5.75;;;1.20;;
22378;SDS011;11357;49.990;7.370;2023-07-13T12:34:57;4.05;;;1.00;;
22378;SDS011;11357;49.990;7.370;2023-07-13T12:37:41;1.35;;;0.70;;
22378;SDS011;11357;49.990;7.370;2023-07-13T12:40:17;5.32;;;1.30;;
22378;SDS011;11357;49.990;7.370;2023-07-13T12:42:46;2.78;;;0.80;;
22378;SDS011;11357;49.990;7.370;2023-07-13T12:45:35;4.47;;;1.10;;
22378;SDS011;11357;49.990;7.370;2023-07-13T12:48:12;1.98;;;0.80;;
22378;SDS011;11357;49.990;7.370;2023-07-13T12:50:41;2.13;;;0.98;;
22378;SDS011;11357;49.990;7.370;2023-07-13T12:53:19;1.75;;;0.80;;
22378;SDS011;11357;49.990;7.370;2023-07-13T12:55:55;2.97;;;0.93;;
22378;SDS011;11357;49.990;7.370;2023-07-13T12:58:40;4.82;;;1.10;;
22378;SDS011;11357;49.990;7.370;2023-07-13T13:01:09;1.35;;;0.73;;
22378;SDS011;11357;49.990;7.370;2023-07-13T13:03:47;2.65;;;0.80;;
22378;SDS011;11357;49.990;7.370;2023-07-13T13:08:46;1.42;;;0.90;;
22378;SDS011;11357;49.990;7.370;2023-07-13T13:11:14;1.50;;;1.20;;
22378;SDS011;11357;49.990;7.370;2023-07-13T13:13:41;2.17;;;0.90;;
22378;SDS011;11357;49.990;7.370;2023-07-13T13:16:23;1.25;;;0.75;;
22378;SDS011;11357;49.990;7.370;2023-07-13T13:19:19;2.13;;;0.90;;
22378;SDS011;11357;49.990;7.370;2023-07-13T13:21:47;1.10;;;0.75;;
22378;SDS011;11357;49.990;7.370;2023-07-13T13:24:17;2.25;;;1.08;;
22378;SDS011;11357;49.990;7.370;2023-07-13T13:26:45;1.95;;;0.80;;
22378;SDS011;11357;49.990;7.370;2023-07-13T13:29:13;2.75;;;0.80;;
22378;SDS011;11357;49.990;7.370;2023-07-13T13:31:40;1.25;;;0.77;;
22378;SDS011;11357;49.990;7.370;2023-07-13T13:34:09;3.03;;;0.80;;
22378;SDS011;11357;49.990;7.370;2023-07-13T13:36:36;1.48;;;0.80;;
22378;SDS011;11357;49.990;7.370;2023-07-13T13:39:05;2.03;;;0.73;;
22378;SDS011;11357;49.990;7.370;2023-07-13T13:41:43;2.63;;;0.73;;
22378;SDS011;11357;49.990;7.370;2023-07-13T13:44:09;0.88;;;0.82;;
22378;SDS011;11357;49.990;7.370;2023-07-13T13:46:35;4.45;;;1.20;;
22378;SDS011;11357;49.990;7.370;2023-07-13T13:49:01;4.30;;;1.05;;
22378;SDS011;11357;49.990;7.370;2023-07-13T13:51:27;2.42;;;0.90;;
22378;SDS011;11357;49.990;7.370;2023-07-13T13:53:54;3.72;;;0.70;;
22378;SDS011;11357;49.990;7.370;2023-07-13T13:56:20;1.45;;;0.85;;
22378;SDS011;11357;49.990;7.370;2023-07-13T13:58:46;5.28;;;1.20;;
22378;SDS011;11357;49.990;7.370;2023-07-13T14:01:21;1.65;;;0.80;;
22378;SDS011;11357;49.990;7.370;2023-07-13T14:03:48;3.60;;;0.85;;
22378;SDS011;11357;49.990;7.370;2023-07-13T14:06:15;1.15;;;0.80;;
22378;SDS011;11357;49.990;7.370;2023-07-13T14:08:41;2.60;;;0.90;;
22378;SDS011;11357;49.990;7.370;2023-07-13T14:11:14;1.38;;;0.95;;
22378;SDS011;11357;49.990;7.370;2023-07-13T14:13:44;2.30;;;1.15;;
22378;SDS011;11357;49.990;7.370;2023-07-13T14:16:17;1.25;;;0.77;;
22378;SDS011;11357;49.990;7.370;2023-07-13T14:18:45;1.83;;;0.82;;
22378;SDS011;11357;49.990;7.370;2023-07-13T14:21:13;8.68;;;1.45;;
22378;SDS011;11357;49.990;7.370;2023-07-13T14:23:40;3.22;;;0.85;;
22378;SDS011;11357;49.990;7.370;2023-07-13T14:26:10;2.10;;;0.90;;
22378;SDS011;11357;49.990;7.370;2023-07-13T14:28:38;5.38;;;1.00;;
22378;SDS011;11357;49.990;7.370;2023-07-13T14:31:08;7.97;;;1.05;;
22378;SDS011;11357;49.990;7.370;2023-07-13T14:33:34;3.05;;;0.90;;
22378;SDS011;11357;49.990;7.370;2023-07-13T14:36:00;1.65;;;1.00;;
22378;SDS011;11357;49.990;7.370;2023-07-13T14:38:26;2.53;;;1.05;;
22378;SDS011;11357;49.990;7.370;2023-07-13T14:40:52;2.53;;;0.90;;
22378;SDS011;11357;49.990;7.370;2023-07-13T14:43:18;0.73;;;0.60;;
22378;SDS011;11357;49.990;7.370;2023-07-13T14:45:45;5.10;;;0.93;;
22378;SDS011;11357;49.990;7.370;2023-07-13T14:48:15;2.22;;;1.10;;
22378;SDS011;11357;49.990;7.370;2023-07-13T14:50:44;1.85;;;1.02;;
22378;SDS011;11357;49.990;7.370;2023-07-13T14:53:11;4.38;;;0.85;;
22378;SDS011;11357;49.990;7.370;2023-07-13T14:55:38;2.78;;;0.82;;
22378;SDS011;11357;49.990;7.370;2023-07-13T14:58:04;4.35;;;1.00;;
22378;SDS011;11357;49.990;7.370;2023-07-13T15:00:29;1.77;;;0.93;;
22378;SDS011;11357;49.990;7.370;2023-07-13T15:02:56;1.98;;;0.90;;
22378;SDS011;11357;49.990;7.370;2023-07-13T15:05:24;1.88;;;0.80;;
22378;SDS011;11357;49.990;7.370;2023-07-13T15:07:56;6.40;;;1.08;;
22378;SDS011;11357;49.990;7.370;2023-07-13T15:10:25;3.00;;;1.38;;
22378;SDS011;11357;49.990;7.370;2023-07-13T15:13:00;3.28;;;0.90;;
22378;SDS011;11357;49.990;7.370;2023-07-13T15:15:37;1.65;;;0.85;;
22378;SDS011;11357;49.990;7.370;2023-07-13T15:18:05;2.45;;;0.80;;
22378;SDS011;11357;49.990;7.370;2023-07-13T15:20:34;3.72;;;1.00;;
22378;SDS011;11357;49.990;7.370;2023-07-13T15:23:00;7.00;;;1.17;;
22378;SDS011;11357;49.990;7.370;2023-07-13T15:25:27;26.38;;;2.65;;
22378;SDS011;11357;49.990;7.370;2023-07-13T15:27:55;33.45;;;2.50;;
22378;SDS011;11357;49.990;7.370;2023-07-13T15:30:22;9.80;;;1.08;;
22378;SDS011;11357;49.990;7.370;2023-07-13T15:32:50;30.80;;;2.10;;
22378;SDS011;11357;49.990;7.370;2023-07-13T15:35:17;4.40;;;1.20;;
22378;SDS011;11357;49.990;7.370;2023-07-13T15:37:45;2.58;;;1.10;;
22378;SDS011;11357;49.990;7.370;2023-07-13T15:40:12;2.33;;;0.90;;
22378;SDS011;11357;49.990;7.370;2023-07-13T15:42:38;3.25;;;0.95;;
22378;SDS011;11357;49.990;7.370;2023-07-13T15:45:19;4.35;;;0.90;;
22378;SDS011;11357;49.990;7.370;2023-07-13T15:47:47;2.05;;;0.80;;
22378;SDS011;11357;49.990;7.370;2023-07-13T15:50:14;1.73;;;1.00;;
22378;SDS011;11357;49.990;7.370;2023-07-13T15:52:41;4.25;;;1.10;;
22378;SDS011;11357;49.990;7.370;2023-07-13T15:55:10;2.25;;;0.90;;
22378;SDS011;11357;49.990;7.370;2023-07-13T15:57:37;2.50;;;0.90;;
22378;SDS011;11357;49.990;7.370;2023-07-13T16:00:03;2.55;;;1.02;;
22378;SDS011;11357;49.990;7.370;2023-07-13T16:02:37;3.78;;;0.93;;
22378;SDS011;11357;49.990;7.370;2023-07-13T16:05:03;12.00;;;2.47;;
22378;SDS011;11357;49.990;7.370;2023-07-13T16:07:29;2.80;;;1.00;;
22378;SDS011;11357;49.990;7.370;2023-07-13T16:09:54;3.72;;;0.80;;
22378;SDS011;11357;49.990;7.370;2023-07-13T16:12:20;2.65;;;0.80;;
22378;SDS011;11357;49.990;7.370;2023-07-13T16:14:47;1.60;;;0.90;;